createdAt,value
2023-01-18T00:01:22.339Z,98798.75
2023-01-18T00:03:51.203Z,98789.04
2023-01-18T00:06:19.517Z,98791.67
2023-01-18T00:08:47.826Z,98778.23
2023-01-18T00:11:18.541Z,98772.49
2023-01-18T00:13:48.029Z,98764.21
2023-01-18T00:16:19.476Z,98765.33
2023-01-18T00:18:56.233Z,98761.07
2023-01-18T00:21:26.519Z,98760.66
2023-01-18T00:23:56.452Z,98746.73
2023-01-18T00:26:24.627Z,98747.36
2023-01-18T00:28:55.742Z,98747.63
2023-01-18T00:31:24.214Z,98740.95
2023-01-18T00:33:52.618Z,98736.98
2023-01-18T00:36:21.613Z,98738.14
2023-01-18T00:38:54.220Z,98736.24
2023-01-18T00:41:23.082Z,98731.36
2023-01-18T00:43:52.388Z,98718.65
2023-01-18T00:46:27.448Z,98712.52
2023-01-18T00:48:57.451Z,98710.77
2023-01-18T00:51:26.071Z,98711.34
2023-01-18T00:53:54.232Z,98707.98
2023-01-18T00:56:23.409Z,98706.38
2023-01-18T00:58:51.581Z,98705.92
2023-01-18T01:01:20.566Z,98709.88
2023-01-18T01:04:07.567Z,98712.06
2023-01-18T01:06:46.636Z,98711.61
2023-01-18T01:09:25.384Z,98707.39
2023-01-18T01:12:13.019Z,98702.74
2023-01-18T01:15:03.681Z,98708.54
2023-01-18T01:17:52.446Z,98695.08
2023-01-18T01:20:40.461Z,98675.11
2023-01-18T01:23:38.432Z,98662.86
2023-01-18T01:26:08.798Z,98654.98
2023-01-18T01:28:39.288Z,98648.93
2023-01-18T01:31:10.292Z,98647.05
2023-01-18T01:33:39.414Z,98651.71
2023-01-18T01:36:13.834Z,98656.45
2023-01-18T01:38:42.431Z,98655.75
2023-01-18T01:41:20.672Z,98648.25
2023-01-18T01:43:54.834Z,98647.64
2023-01-18T01:46:41.725Z,98638.65
2023-01-18T01:49:17.590Z,98641.77
2023-01-18T01:51:58.223Z,98634.70
2023-01-18T01:55:01.876Z,98631.04
2023-01-18T01:58:02.845Z,98638.16
2023-01-18T02:00:31.753Z,98618.61
2023-01-18T02:03:06.371Z,98618.81
2023-01-18T02:05:42.709Z,98618.98
2023-01-18T02:08:13.773Z,98620.90
2023-01-18T02:10:42.019Z,98607.22
2023-01-18T02:13:11.371Z,98606.47
2023-01-18T02:16:07.043Z,98598.92
2023-01-18T02:18:50.713Z,98595.97
2023-01-18T02:21:26.943Z,98592.17
2023-01-18T02:24:01.404Z,98603.81
2023-01-18T02:27:00.699Z,98595.73
2023-01-18T02:29:41.141Z,98594.01
2023-01-18T02:32:29.678Z,98596.13
2023-01-18T02:35:11.180Z,98598.15
2023-01-18T02:37:48.434Z,98608.98
2023-01-18T02:40:39.918Z,98606.30
2023-01-18T02:43:30.296Z,98590.91
2023-01-18T02:46:18.780Z,98596.95
2023-01-18T02:48:48.955Z,98590.84
2023-01-18T02:51:17.349Z,98592.69
2023-01-18T02:53:47.779Z,98596.73
2023-01-18T02:56:17.557Z,98593.41
2023-01-18T02:58:51.322Z,98590.11
2023-01-18T03:01:22.523Z,98590.49
2023-01-18T03:03:55.264Z,98588.14
2023-01-18T03:06:27.949Z,98580.05
2023-01-18T03:08:58.596Z,98570.35
2023-01-18T03:11:32.642Z,98557.05
2023-01-18T03:14:29.323Z,98554.27
2023-01-18T03:17:11.439Z,98550.90
2023-01-18T03:19:58.413Z,98553.13
2023-01-18T03:22:48.271Z,98544.60
2023-01-18T03:25:20.658Z,98542.38
2023-01-18T03:28:10.386Z,98541.25
2023-01-18T03:30:59.757Z,98544.63
2023-01-18T03:33:47.799Z,98553.45
2023-01-18T03:36:41.564Z,98555.67
2023-01-18T03:39:16.068Z,98554.11
2023-01-18T03:41:49.134Z,98551.42
2023-01-18T03:44:29.613Z,98549.50
2023-01-18T03:46:58.076Z,98548.07
2023-01-18T03:49:27.662Z,98552.42
2023-01-18T03:52:29.683Z,98550.06
2023-01-18T03:55:07.931Z,98553.33
2023-01-18T03:57:43.756Z,98563.48
2023-01-18T04:00:14.402Z,98557.48
2023-01-18T04:02:47.442Z,98558.84
2023-01-18T04:05:17.335Z,98562.52
2023-01-18T04:07:45.642Z,98563.80
2023-01-18T04:10:14.068Z,98561.34
2023-01-18T04:12:43.473Z,98562.20
2023-01-18T04:15:11.973Z,98567.02
2023-01-18T04:17:41.400Z,98569.34
2023-01-18T04:20:11.505Z,98576.21
2023-01-18T04:22:45.767Z,98574.81
2023-01-18T04:25:13.986Z,98574.54
2023-01-18T04:27:42.303Z,98582.91
2023-01-18T04:30:11.169Z,98588.05
2023-01-18T04:32:40.227Z,98589.60
2023-01-18T04:35:15.563Z,98589.48
2023-01-18T04:37:43.992Z,98591.52
2023-01-18T04:40:13.050Z,98590.05
2023-01-18T04:42:41.279Z,98597.07
2023-01-18T04:45:14.263Z,98595.69
2023-01-18T04:47:42.972Z,98593.34
2023-01-18T04:50:12.260Z,98592.44
2023-01-18T04:52:40.589Z,98587.91
2023-01-18T04:55:15.648Z,98583.13
2023-01-18T04:57:54.490Z,98579.77
2023-01-18T05:00:24.355Z,98579.21
2023-01-18T05:02:53.796Z,98591.91
2023-01-18T05:05:22.482Z,98601.50
2023-01-18T05:07:53.623Z,98597.41
2023-01-18T05:10:21.786Z,98601.93
2023-01-18T05:12:50.082Z,98600.91
2023-01-18T05:15:18.489Z,98606.21
2023-01-18T05:17:46.748Z,98614.91
2023-01-18T05:20:19.716Z,98608.79
2023-01-18T05:22:47.904Z,98615.10
2023-01-18T05:25:16.308Z,98609.02
2023-01-18T05:27:46.581Z,98602.08
2023-01-18T05:30:21.158Z,98612.98
2023-01-18T05:32:49.389Z,98618.38
2023-01-18T05:35:17.723Z,98617.29
2023-01-18T05:37:52.243Z,98614.31
2023-01-18T05:40:22.321Z,98617.89
2023-01-18T05:42:53.215Z,98619.85
2023-01-18T05:45:21.429Z,98619.66
2023-01-18T05:47:52.540Z,98615.13
2023-01-18T05:50:20.775Z,98610.73
2023-01-18T05:52:48.934Z,98611.41
2023-01-18T05:55:18.477Z,98611.77
2023-01-18T05:57:52.763Z,98611.62
2023-01-18T06:00:21.332Z,98612.58
2023-01-18T06:02:56.682Z,98625.04
2023-01-18T06:05:25.659Z,98637.88
2023-01-18T06:07:54.052Z,98638.90
2023-01-18T06:10:22.250Z,98644.59
2023-01-18T06:12:50.644Z,98640.11
2023-01-18T06:15:18.934Z,98629.55
2023-01-18T06:17:47.336Z,98623.69
2023-01-18T06:20:16.046Z,98627.52
2023-01-18T06:22:45.741Z,98632.86
2023-01-18T06:25:14.197Z,98630.14
2023-01-18T06:27:42.396Z,98633.41
2023-01-18T06:30:11.182Z,98637.00
2023-01-18T06:32:39.337Z,98644.27
2023-01-18T06:35:08.114Z,98642.09
2023-01-18T06:37:36.339Z,98642.83
2023-01-18T06:40:05.460Z,98643.10
2023-01-18T06:42:33.777Z,98642.89
2023-01-18T06:45:01.923Z,98635.52
2023-01-18T06:47:30.359Z,98635.21
2023-01-18T06:49:58.639Z,98630.89
2023-01-18T06:52:26.915Z,98632.36
2023-01-18T06:54:55.175Z,98630.64
2023-01-18T06:57:24.112Z,98627.39
2023-01-18T06:59:53.572Z,98628.17
2023-01-18T07:02:21.897Z,98627.13
2023-01-18T07:04:50.559Z,98627.21
2023-01-18T07:07:18.956Z,98627.27
2023-01-18T07:09:47.167Z,98634.01
2023-01-18T07:12:15.484Z,98635.38
2023-01-18T07:14:43.789Z,98644.64
2023-01-18T07:17:12.128Z,98643.55
2023-01-18T07:19:40.463Z,98640.84
2023-01-18T07:22:08.827Z,98642.30
2023-01-18T07:24:37.016Z,98648.55
2023-01-18T07:27:05.236Z,98645.88
2023-01-18T07:29:33.490Z,98644.66
2023-01-18T07:32:02.741Z,98643.77
2023-01-18T07:34:31.094Z,98645.28
2023-01-18T07:36:59.386Z,98642.61
2023-01-18T07:39:27.643Z,98642.37
2023-01-18T07:41:56.013Z,98647.43
2023-01-18T07:44:24.653Z,98641.45
2023-01-18T07:46:52.938Z,98635.66
2023-01-18T07:49:21.181Z,98629.66
2023-01-18T07:51:49.416Z,98636.52
2023-01-18T07:54:19.257Z,98634.13
2023-01-18T07:56:47.532Z,98636.17
2023-01-18T07:59:16.117Z,98636.54
2023-01-18T08:01:44.424Z,98632.90
2023-01-18T08:04:12.684Z,98634.21
2023-01-18T08:06:40.943Z,98632.80
2023-01-18T08:09:09.204Z,98641.15
2023-01-18T08:11:37.428Z,98647.29
2023-01-18T08:14:05.671Z,98645.20
2023-01-18T08:16:33.910Z,98646.20
2023-01-18T08:19:02.167Z,98653.54
2023-01-18T08:21:32.041Z,98653.98
2023-01-18T08:24:00.328Z,98664.52
2023-01-18T08:26:28.531Z,98656.51
2023-01-18T08:28:57.884Z,98654.96
2023-01-18T08:31:27.070Z,98651.40
2023-01-18T08:33:55.498Z,98659.11
2023-01-18T08:36:25.618Z,98656.23
2023-01-18T08:38:57.274Z,98655.02
2023-01-18T08:41:30.676Z,98662.55
2023-01-18T08:43:59.726Z,98662.75
2023-01-18T08:46:28.666Z,98663.39
2023-01-18T08:48:59.557Z,98662.48
2023-01-18T08:51:28.056Z,98660.10
2023-01-18T08:53:57.417Z,98665.04
2023-01-18T08:56:26.225Z,98658.11
2023-01-18T08:58:56.117Z,98653.34
2023-01-18T09:01:25.101Z,98660.55
2023-01-18T09:03:55.373Z,98661.38
2023-01-18T09:06:24.308Z,98649.15
2023-01-18T09:08:53.266Z,98648.40
2023-01-18T09:11:21.480Z,98638.02
2023-01-18T09:14:00.711Z,98638.39
2023-01-18T09:16:31.277Z,98625.60
2023-01-18T09:19:00.019Z,98627.30
2023-01-18T09:21:29.397Z,98626.42
2023-01-18T09:23:59.765Z,98617.80
2023-01-18T09:26:30.624Z,98610.67
2023-01-18T09:28:59.077Z,98607.14
2023-01-18T09:31:29.132Z,98607.72
2023-01-18T09:34:09.563Z,98614.14
2023-01-18T09:36:46.901Z,98606.20
2023-01-18T09:39:15.270Z,98606.14
2023-01-18T09:41:49.769Z,98611.35
2023-01-18T09:44:24.243Z,98610.11
2023-01-18T09:47:00.438Z,98602.71
2023-01-18T09:49:38.189Z,98594.90
2023-01-18T09:52:44.093Z,98597.14
2023-01-18T09:55:52.367Z,98604.53
2023-01-18T09:58:53.800Z,98600.95
2023-01-18T10:01:30.200Z,98595.82
2023-01-18T10:04:01.028Z,98590.14
2023-01-18T10:06:37.216Z,98588.57
2023-01-18T10:09:15.746Z,98589.42
2023-01-18T10:11:50.963Z,98583.21
2023-01-18T10:14:43.897Z,98587.86
2023-01-18T10:17:18.263Z,98583.31
2023-01-18T10:19:47.659Z,98579.89
2023-01-18T10:22:34.550Z,98585.54
2023-01-18T10:25:24.313Z,98587.30
2023-01-18T10:28:33.516Z,98592.40
2023-01-18T10:31:32.050Z,98577.18
2023-01-18T10:34:02.932Z,98572.64
2023-01-18T10:36:41.895Z,98571.19
2023-01-18T10:39:36.397Z,98573.65
2023-01-18T10:42:17.634Z,98582.91
2023-01-18T10:44:45.857Z,98575.95
2023-01-18T10:47:17.984Z,98578.58
2023-01-18T10:49:49.204Z,98578.41
2023-01-18T10:52:26.376Z,98582.38
2023-01-18T10:55:01.807Z,98579.10
2023-01-18T10:57:34.576Z,98581.13
2023-01-18T11:00:12.618Z,98580.78
2023-01-18T11:02:45.157Z,98574.23
2023-01-18T11:05:27.564Z,98570.71
2023-01-18T11:08:17.624Z,98572.20
2023-01-18T11:10:46.043Z,98577.37
2023-01-18T11:13:35.714Z,98570.38
2023-01-18T11:16:08.775Z,98569.88
2023-01-18T11:18:37.149Z,98573.71
2023-01-18T11:21:11.272Z,98574.08
2023-01-18T11:23:43.029Z,98572.63
2023-01-18T11:26:19.264Z,98571.35
2023-01-18T11:29:00.879Z,98575.77
2023-01-18T11:31:49.733Z,98575.79
2023-01-18T11:34:29.989Z,98572.69
2023-01-18T11:37:00.808Z,98574.35
2023-01-18T11:39:33.502Z,98574.33
2023-01-18T11:42:26.820Z,98580.48
2023-01-18T11:45:04.513Z,98591.06
2023-01-18T11:48:03.785Z,98589.80
2023-01-18T11:50:46.024Z,98594.41
2023-01-18T11:53:57.247Z,98599.67
2023-01-18T11:56:35.067Z,98600.69
2023-01-18T11:59:12.506Z,98612.44
2023-01-18T12:01:55.650Z,98619.04
2023-01-18T12:04:45.655Z,98623.76
2023-01-18T12:07:16.748Z,98622.05
2023-01-18T12:09:54.176Z,98632.08
2023-01-18T12:12:52.877Z,98636.25
2023-01-18T12:16:01.591Z,98648.27
2023-01-18T12:18:59.158Z,98646.92
2023-01-18T12:21:50.114Z,98643.77
2023-01-18T12:24:35.029Z,98652.17
2023-01-18T12:27:33.001Z,98663.70
2023-01-18T12:30:14.211Z,98675.98
2023-01-18T12:33:22.639Z,98675.18
2023-01-18T12:36:01.805Z,98680.16
2023-01-18T12:38:33.009Z,98686.23
2023-01-18T12:41:17.829Z,98691.52
2023-01-18T12:44:07.620Z,98692.77
2023-01-18T12:47:01.234Z,98695.86
2023-01-18T12:49:34.554Z,98701.77
2023-01-18T12:52:18.002Z,98702.36
2023-01-18T12:55:02.053Z,98711.39
2023-01-18T12:57:30.550Z,98710.51
2023-01-18T13:00:19.156Z,98707.02
2023-01-18T13:02:52.939Z,98705.20
2023-01-18T13:05:37.141Z,98704.29
2023-01-18T13:08:17.325Z,98701.98
2023-01-18T13:10:47.026Z,98697.55
2023-01-18T13:13:22.732Z,98684.48
2023-01-18T13:15:59.164Z,98682.99
2023-01-18T13:18:37.015Z,98683.59
2023-01-18T13:21:32.524Z,98706.39
2023-01-18T13:24:04.299Z,98706.27
2023-01-18T13:26:34.746Z,98710.80
2023-01-18T13:29:10.339Z,98711.16
2023-01-18T13:31:38.810Z,98720.98
2023-01-18T13:34:25.205Z,98720.48
2023-01-18T13:37:02.487Z,98709.60
2023-01-18T13:39:47.862Z,98709.73
2023-01-18T13:42:22.308Z,98713.48
2023-01-18T13:45:14.373Z,98719.16
2023-01-18T13:47:50.078Z,98735.45
2023-01-18T13:50:39.665Z,98737.50
2023-01-18T13:53:18.006Z,98732.25
2023-01-18T13:55:55.458Z,98731.88
2023-01-18T13:58:31.603Z,98742.48
2023-01-18T14:01:05.215Z,98743.38
2023-01-18T14:03:33.527Z,98746.23
2023-01-18T14:06:15.216Z,98747.80
2023-01-18T14:08:52.950Z,98745.61
2023-01-18T14:11:27.854Z,98742.08
2023-01-18T14:13:59.504Z,98739.18
2023-01-18T14:16:34.676Z,98731.73
2023-01-18T14:19:19.877Z,98734.27
2023-01-18T14:22:07.524Z,98749.69
2023-01-18T14:24:45.250Z,98757.98
2023-01-18T14:27:47.205Z,98764.88
2023-01-18T14:30:34.568Z,98777.06
2023-01-18T14:33:26.630Z,98791.36
2023-01-18T14:36:01.189Z,98806.48
2023-01-18T14:38:31.449Z,98816.91
2023-01-18T14:41:08.259Z,98824.71
